createdAt,value
2024-02-04T00:02:00.168Z,74.80
2024-02-04T00:04:28.585Z,74.50
2024-02-04T00:06:56.831Z,73.50
2024-02-04T00:09:28.991Z,73.30
2024-02-04T00:11:59.766Z,74.60
2024-02-04T00:14:27.870Z,74.10
2024-02-04T00:16:55.930Z,75.20
2024-02-04T00:19:24.143Z,74.40
2024-02-04T00:21:52.401Z,76.40
2024-02-04T00:24:21.020Z,76.30
2024-02-04T00:26:50.582Z,76.90
2024-02-04T00:29:18.816Z,75.90
2024-02-04T00:31:46.881Z,76.20
2024-02-04T00:34:15.145Z,76.00
2024-02-04T00:36:43.472Z,75.70
2024-02-04T00:39:12.518Z,76.80
2024-02-04T00:41:40.620Z,76.60
2024-02-04T00:44:10.138Z,77.20
2024-02-04T00:46:38.233Z,77.10
2024-02-04T00:49:06.477Z,75.70
2024-02-04T00:51:34.878Z,77.70
2024-02-04T00:54:02.996Z,77.10
2024-02-04T00:56:31.079Z,76.60
2024-02-04T00:58:59.121Z,76.30
2024-02-04T01:01:28.856Z,76.10
2024-02-04T01:03:57.140Z,76.50
2024-02-04T01:06:26.154Z,77.80
2024-02-04T01:08:54.269Z,78.20
2024-02-04T01:11:22.653Z,77.50
2024-02-04T01:13:50.764Z,78.00
2024-02-04T01:16:18.837Z,76.90
2024-02-04T01:18:49.428Z,78.10
2024-02-04T01:21:17.510Z,77.40
2024-02-04T01:23:45.563Z,77.20
2024-02-04T01:26:13.607Z,78.80
2024-02-04T01:28:41.699Z,79.30
2024-02-04T01:31:09.858Z,79.20
2024-02-04T01:33:38.095Z,79.20
2024-02-04T01:36:08.204Z,79.80
2024-02-04T01:38:36.281Z,79.50
2024-02-04T01:41:04.447Z,79.90
2024-02-04T01:43:32.579Z,79.50
2024-02-04T01:46:00.836Z,79.30
2024-02-04T01:48:29.238Z,79.30
2024-02-04T01:50:59.466Z,81.30
2024-02-04T01:53:30.332Z,80.30
2024-02-04T01:55:58.830Z,79.30
2024-02-04T01:58:27.167Z,79.40
2024-02-04T02:00:55.661Z,80.40
2024-02-04T02:03:27.202Z,79.40
2024-02-04T02:05:56.307Z,78.50
2024-02-04T02:08:24.600Z,80.10
2024-02-04T02:11:03.713Z,79.60
2024-02-04T02:13:34.101Z,80.90
2024-02-04T02:16:14.317Z,80.40
2024-02-04T02:18:46.494Z,80.70
2024-02-04T02:21:29.523Z,80.20
2024-02-04T02:24:10.922Z,80.20
2024-02-04T02:26:40.491Z,80.40
2024-02-04T02:29:09.677Z,80.00
2024-02-04T02:31:47.146Z,80.20
2024-02-04T02:34:30.303Z,79.60
2024-02-04T02:37:13.776Z,79.80
2024-02-04T02:39:48.168Z,79.80
2024-02-04T02:42:18.920Z,80.10
2024-02-04T02:44:48.366Z,79.20
2024-02-04T02:47:17.467Z,80.60
2024-02-04T02:49:45.945Z,80.40
2024-02-04T02:52:14.183Z,79.80
2024-02-04T02:54:42.308Z,80.10
2024-02-04T02:57:10.418Z,80.40
2024-02-04T02:59:39.902Z,80.00
2024-02-04T03:02:07.984Z,80.70
2024-02-04T03:04:36.154Z,79.00
2024-02-04T03:07:04.307Z,79.50
2024-02-04T03:09:32.415Z,80.80
2024-02-04T03:12:00.508Z,80.00
2024-02-04T03:14:28.562Z,80.80
2024-02-04T03:16:57.963Z,80.90
2024-02-04T03:19:26.020Z,81.80
2024-02-04T03:21:54.181Z,80.50
2024-02-04T03:24:22.286Z,81.20
2024-02-04T03:26:50.595Z,82.60
2024-02-04T03:29:18.704Z,82.30
2024-02-04T03:31:46.867Z,82.70
2024-02-04T03:34:16.381Z,83.50
2024-02-04T03:36:44.555Z,82.30
2024-02-04T03:39:12.588Z,83.90
2024-02-04T03:41:41.035Z,82.60
2024-02-04T03:44:09.178Z,84.60
2024-02-04T03:46:37.630Z,84.20
2024-02-04T03:49:05.768Z,83.00
2024-02-04T03:51:35.343Z,81.90
2024-02-04T03:54:03.437Z,82.00
2024-02-04T03:56:31.963Z,82.60
2024-02-04T03:59:00.212Z,81.50
2024-02-04T04:01:28.338Z,81.50
2024-02-04T04:03:56.508Z,81.40
2024-02-04T04:06:24.733Z,81.70
2024-02-04T04:08:54.321Z,82.10
2024-02-04T04:11:22.404Z,80.50
2024-02-04T04:13:50.870Z,81.60
2024-02-04T04:16:23.406Z,81.10
2024-02-04T04:18:51.709Z,81.40
2024-02-04T04:21:19.903Z,80.40
2024-02-04T04:23:47.977Z,80.70
2024-02-04T04:26:17.590Z,80.50
2024-02-04T04:28:45.669Z,81.70
2024-02-04T04:31:13.922Z,80.50
2024-02-04T04:33:42.204Z,81.60
2024-02-04T04:36:10.583Z,82.30
2024-02-04T04:38:38.621Z,83.10
2024-02-04T04:41:08.200Z,82.90
2024-02-04T04:43:40.557Z,83.10
2024-02-04T04:46:08.813Z,83.40
2024-02-04T04:48:37.050Z,84.60
2024-02-04T04:51:05.244Z,84.20
2024-02-04T04:53:33.282Z,86.10
2024-02-04T04:56:01.314Z,84.70
2024-02-04T04:58:29.373Z,85.20
2024-02-04T05:00:58.885Z,84.60
2024-02-04T05:03:27.111Z,83.30
2024-02-04T05:05:55.507Z,83.90
2024-02-04T05:08:23.609Z,82.80
2024-02-04T05:10:51.712Z,82.90
2024-02-04T05:13:19.924Z,83.10
2024-02-04T06:03:23.374Z,83.10
2024-02-04T06:08:22.169Z,83.00
2024-02-04T06:10:50.322Z,83.70
2024-02-04T06:13:18.424Z,82.60
2024-02-04T06:15:46.509Z,82.50
2024-02-04T06:18:14.720Z,82.10
2024-02-04T06:20:42.796Z,82.60
2024-02-04T06:23:09.880Z,82.00
2024-02-04T06:25:39.462Z,83.10
2024-02-04T06:28:08.053Z,82.30
2024-02-04T06:30:36.285Z,81.70
2024-02-04T06:33:04.846Z,83.10
2024-02-04T06:35:33.742Z,83.60
2024-02-04T06:38:02.235Z,82.80
2024-02-04T06:40:30.356Z,84.10
2024-02-04T06:42:59.865Z,83.40
2024-02-04T06:45:28.043Z,83.40
2024-02-04T06:47:56.312Z,83.60
2024-02-04T06:50:24.405Z,83.50
2024-02-04T06:52:52.509Z,84.80
2024-02-04T06:55:20.639Z,84.10
2024-02-04T06:57:48.792Z,84.00
2024-02-04T07:00:18.893Z,85.30
2024-02-04T07:02:47.002Z,85.70
2024-02-04T07:05:16.806Z,85.50
2024-02-04T07:07:45.396Z,83.50
2024-02-04T07:10:13.566Z,83.80
2024-02-04T07:12:41.770Z,84.40
2024-02-04T07:15:10.582Z,84.70
2024-02-04T07:17:40.230Z,82.30
2024-02-04T07:20:09.328Z,82.00
2024-02-04T07:22:37.981Z,81.80
2024-02-04T07:25:07.035Z,81.40
2024-02-04T07:27:35.514Z,80.20
2024-02-04T07:30:04.671Z,79.50
2024-02-04T07:32:32.877Z,79.50
2024-02-04T07:35:03.023Z,79.60
2024-02-04T07:37:31.244Z,79.50
2024-02-04T07:39:59.346Z,79.10
2024-02-04T07:42:27.499Z,77.80
2024-02-04T07:44:56.030Z,76.60
2024-02-04T07:47:24.189Z,74.80
2024-02-04T07:49:52.980Z,72.50
2024-02-04T07:52:22.421Z,72.70
2024-02-04T07:54:50.557Z,71.40
2024-02-04T07:57:18.699Z,70.90
2024-02-04T07:59:46.753Z,70.50
2024-02-04T08:02:14.852Z,69.50
2024-02-04T08:04:43.350Z,69.40
2024-02-04T08:07:11.529Z,67.20
2024-02-04T08:09:41.059Z,66.10
2024-02-04T08:12:10.735Z,65.80
2024-02-04T08:14:38.768Z,64.90
2024-02-04T08:17:06.808Z,63.60
2024-02-04T08:19:34.956Z,63.80
2024-02-04T08:22:03.163Z,64.60
2024-02-04T08:24:33.238Z,63.20
2024-02-04T08:27:02.749Z,64.10
2024-02-04T08:29:30.788Z,63.50
2024-02-04T08:31:58.917Z,64.60
2024-02-04T08:34:27.420Z,64.70
2024-02-04T08:36:56.012Z,64.20
2024-02-04T08:39:24.500Z,64.50
2024-02-04T08:41:52.549Z,64.60
2024-02-04T08:44:31.676Z,63.60
2024-02-04T08:47:04.099Z,63.40
2024-02-04T08:49:32.321Z,63.50
2024-02-04T08:52:00.501Z,64.40
2024-02-04T08:54:28.776Z,65.30
2024-02-04T08:56:56.956Z,65.70
2024-02-04T08:59:26.527Z,64.90
2024-02-04T09:01:54.623Z,64.80
2024-02-04T09:04:22.913Z,64.10
2024-02-04T09:06:51.142Z,63.70
2024-02-04T09:09:19.289Z,62.50
2024-02-04T09:11:47.366Z,63.60
2024-02-04T09:14:15.494Z,62.70
2024-02-04T09:16:45.113Z,62.00
2024-02-04T09:19:13.462Z,60.40
2024-02-04T09:21:41.708Z,61.30
2024-02-04T09:24:09.999Z,61.70
2024-02-04T09:26:38.036Z,54.20
2024-02-04T09:29:07.268Z,53.00
2024-02-04T09:31:35.473Z,50.50
2024-02-04T09:34:05.316Z,50.20
2024-02-04T09:36:33.668Z,50.00
2024-02-04T09:39:01.833Z,49.40
2024-02-04T09:41:29.989Z,49.30
2024-02-04T09:43:58.899Z,49.70
2024-02-04T09:46:27.772Z,48.90
2024-02-04T09:48:57.462Z,50.20
2024-02-04T09:51:28.271Z,50.20
2024-02-04T09:54:01.273Z,49.40
2024-02-04T09:56:30.562Z,48.60
2024-02-04T09:58:59.342Z,49.10
2024-02-04T10:01:28.566Z,48.40
2024-02-04T10:03:56.743Z,49.00
2024-02-04T10:06:26.471Z,48.70
2024-02-04T10:08:54.992Z,46.40
2024-02-04T10:11:23.214Z,47.80
2024-02-04T10:13:51.757Z,48.50
2024-02-04T10:16:20.390Z,48.80
2024-02-04T10:18:50.552Z,45.80
2024-02-04T10:21:20.754Z,45.60
2024-02-04T10:23:50.432Z,45.50
2024-02-04T10:26:21.239Z,44.50
2024-02-04T10:28:49.750Z,42.80
2024-02-04T10:31:18.120Z,41.40
2024-02-04T10:33:46.661Z,44.40
2024-02-04T10:36:15.023Z,44.30
2024-02-04T10:38:43.151Z,43.90
2024-02-04T10:41:16.953Z,43.30
2024-02-04T10:43:46.528Z,42.70
2024-02-04T10:46:18.408Z,43.00
2024-02-04T10:48:53.659Z,42.10
2024-02-04T10:51:27.362Z,43.60
2024-02-04T10:53:57.639Z,41.70
2024-02-04T10:56:32.972Z,41.10
2024-02-04T10:59:04.001Z,41.40
2024-02-04T11:01:32.708Z,42.60
2024-02-04T11:04:02.957Z,43.00
2024-02-04T11:06:33.076Z,41.80
2024-02-04T11:09:02.007Z,41.80
2024-02-04T11:11:32.157Z,41.80
2024-02-04T11:14:06.894Z,42.20
2024-02-04T11:17:02.960Z,42.60
2024-02-04T11:19:43.118Z,42.90
2024-02-04T11:22:37.038Z,42.90
2024-02-04T11:25:32.250Z,44.20
2024-02-04T11:28:02.012Z,42.60
2024-02-04T11:30:35.395Z,42.70
2024-02-04T11:33:03.924Z,41.10
2024-02-04T11:35:32.686Z,41.00
2024-02-04T11:38:01.380Z,40.30
2024-02-04T11:40:34.366Z,40.60
2024-02-04T11:43:08.774Z,40.30
2024-02-04T11:45:40.841Z,39.70
2024-02-04T11:48:11.088Z,39.50
2024-02-04T11:50:40.502Z,39.70
2024-02-04T11:53:10.005Z,38.20
2024-02-04T11:55:44.874Z,39.80
2024-02-04T11:58:15.646Z,39.20
2024-02-04T12:00:45.898Z,38.80
2024-02-04T12:03:14.300Z,38.20
2024-02-04T12:05:43.071Z,34.50
2024-02-04T12:08:11.403Z,36.80
2024-02-04T12:10:40.793Z,35.80
2024-02-04T12:13:09.557Z,36.40
2024-02-04T12:15:40.970Z,36.10
2024-02-04T12:18:09.725Z,29.60
2024-02-04T12:20:39.060Z,36.10
2024-02-04T12:23:08.076Z,36.90
2024-02-04T12:25:38.300Z,37.20
2024-02-04T12:28:07.973Z,36.80
2024-02-04T12:30:36.562Z,37.60
2024-02-04T12:33:08.234Z,37.50
2024-02-04T12:35:36.478Z,37.70
2024-02-04T12:38:04.812Z,37.90
2024-02-04T12:40:33.468Z,37.60
2024-02-04T12:43:05.770Z,38.10
2024-02-04T12:45:35.370Z,37.50
2024-02-04T12:48:05.448Z,38.00
2024-02-04T12:50:34.384Z,36.20
2024-02-04T12:53:06.926Z,37.40
2024-02-04T12:55:36.149Z,37.60
2024-02-04T12:58:05.240Z,37.70
2024-02-04T13:00:34.131Z,37.30
2024-02-04T13:03:03.733Z,38.00
2024-02-04T13:05:33.969Z,37.90
2024-02-04T13:08:03.902Z,37.40
2024-02-04T13:10:35.012Z,37.90
2024-02-04T13:13:04.035Z,38.10
2024-02-04T13:15:32.852Z,37.50
2024-02-04T13:18:01.205Z,37.10
2024-02-04T13:20:31.785Z,37.30
2024-02-04T13:23:04.760Z,37.50
2024-02-04T13:25:33.197Z,36.10
2024-02-04T13:28:01.579Z,36.40
2024-02-04T13:30:30.128Z,37.10
2024-02-04T13:32:58.677Z,36.20
2024-02-04T13:35:27.073Z,36.70
2024-02-04T13:37:56.532Z,37.30
2024-02-04T13:40:26.396Z,36.90
2024-02-04T13:42:54.678Z,36.50
2024-02-04T13:45:23.618Z,36.80
2024-02-04T13:47:51.786Z,36.30
2024-02-04T13:50:20.042Z,37.10
2024-02-04T13:52:48.169Z,36.90
2024-02-04T13:55:16.399Z,37.50
2024-02-04T13:57:46.073Z,37.30
2024-02-04T14:00:15.601Z,37.00
2024-02-04T14:02:43.645Z,37.80
2024-02-04T14:05:11.972Z,37.80
2024-02-04T14:07:40.419Z,37.60
2024-02-04T14:10:09.911Z,37.50
2024-02-04T14:12:38.140Z,37.60
2024-02-04T14:15:08.539Z,37.80
2024-02-04T14:17:36.639Z,37.20
2024-02-04T14:20:05.683Z,37.70
2024-02-04T14:22:33.818Z,38.10
2024-02-04T14:25:02.108Z,38.10
2024-02-04T14:27:30.904Z,38.40
2024-02-04T14:29:59.038Z,39.30
2024-02-04T14:32:28.585Z,39.30
2024-02-04T14:34:56.839Z,39.00
2024-02-04T14:37:25.093Z,37.90
2024-02-04T14:39:53.527Z,38.30
2024-02-04T14:42:21.671Z,38.40
2024-02-04T14:44:49.821Z,38.40
2024-02-04T14:47:17.886Z,39.30
2024-02-04T14:49:47.442Z,38.80
2024-02-04T14:52:15.893Z,38.70
2024-02-04T14:54:44.522Z,39.20
2024-02-04T14:57:12.699Z,39.50
2024-02-04T14:59:41.281Z,39.80
2024-02-04T15:02:09.685Z,40.10
2024-02-04T15:04:38.131Z,40.90
2024-02-04T15:07:08.199Z,40.80
2024-02-04T15:09:36.957Z,40.10
2024-02-04T15:12:06.075Z,40.90
2024-02-04T15:14:34.701Z,39.90
2024-02-04T15:17:03.357Z,40.40
2024-02-04T15:19:33.787Z,39.90
2024-02-04T15:22:02.522Z,40.40
2024-02-04T15:24:32.712Z,40.20
2024-02-04T15:27:05.661Z,40.40
2024-02-04T15:29:36.872Z,39.70
2024-02-04T15:32:05.733Z,40.20
2024-02-04T15:34:34.962Z,40.70
2024-02-04T15:37:03.214Z,41.00
2024-02-04T15:39:32.707Z,41.90
2024-02-04T15:42:00.851Z,42.40
2024-02-04T15:44:28.908Z,42.60
2024-02-04T15:46:58.122Z,42.50
2024-02-04T15:49:28.103Z,42.10
2024-02-04T15:51:57.077Z,42.80
2024-02-04T15:54:25.994Z,44.00
2024-02-04T15:57:03.673Z,44.70
2024-02-04T15:59:47.714Z,45.50
2024-02-04T16:02:16.140Z,47.30
2024-02-04T16:04:46.460Z,47.50
2024-02-04T16:07:17.203Z,48.10
2024-02-04T16:09:49.257Z,49.10
2024-02-04T16:12:21.379Z,49.90
2024-02-04T16:17:21.337Z,59.00
2024-02-04T16:19:50.395Z,52.70
2024-02-04T16:22:19.738Z,52.20
2024-02-04T16:24:48.597Z,52.90
2024-02-04T16:27:18.132Z,54.50
2024-02-04T16:29:46.453Z,55.60
2024-02-04T16:32:15.408Z,56.80
2024-02-04T16:34:43.790Z,57.30
2024-02-04T16:37:12.158Z,58.10
2024-02-04T16:39:42.237Z,59.00
2024-02-04T16:42:10.885Z,56.10
2024-02-04T16:44:40.334Z,61.70
2024-02-04T16:47:08.447Z,59.70
2024-02-04T16:49:40.452Z,83.50
2024-02-04T16:52:09.000Z,67.10
2024-02-04T16:54:37.208Z,68.40
2024-02-04T16:57:07.984Z,68.80
2024-02-04T16:59:37.181Z,72.60
2024-02-04T17:02:07.147Z,70.70
2024-02-04T17:04:35.866Z,73.80
2024-02-04T17:34:49.444Z,86.30
2024-02-04T17:37:17.770Z,71.70
2024-02-04T17:39:45.974Z,73.90
2024-02-04T17:42:14.717Z,76.00
2024-02-04T17:44:42.874Z,74.60
2024-02-04T17:47:11.621Z,73.40
2024-02-04T17:49:41.333Z,73.30
2024-02-04T17:52:09.542Z,73.20
2024-02-04T17:54:38.312Z,72.80
2024-02-04T17:57:07.143Z,74.60
2024-02-04T18:04:43.178Z,85.70
2024-02-04T18:07:11.416Z,85.00
2024-02-04T18:09:42.659Z,83.70
2024-02-04T18:12:10.877Z,83.20
2024-02-04T18:14:40.840Z,83.30
2024-02-04T18:17:08.999Z,83.30
2024-02-04T18:19:37.265Z,82.80
2024-02-04T18:22:06.852Z,78.20
2024-02-04T18:24:38.245Z,78.70
2024-02-04T18:27:07.288Z,78.50
2024-02-04T18:29:35.520Z,78.10
2024-02-04T18:32:03.638Z,79.40
2024-02-04T18:34:31.794Z,81.30
